Airfield :
LOGIN :

Register | Disclaimer

   EN    FR    IT 

 










Legend :    VFR   Marginal VFR   IFR   Intensive IFR   Very Intensive IFR
Visi :
Ceiling :
>= 8 km
>= 3000ft
5 to 8 km
1000 to 3000 ft
1500m to 5 km
500 to 1000 ft
800 to 1500m
200 to 500 ft
< 800m
< 200 ft
Symbols :   Thunderstorms  Fog  Heavy snow  Heavy precipitations  Wind > 20 kt
SIGMETs :     Misc.  Thunderstorms  Icing  Turbulence  Mountain Waves  Volcanic Ashes







- Airport Elevation : 1910 ft
- IATA code : RDZ
- Download approach charts


LFCR - Rodez

CURRENT METAR :
  • 170530Z AUTO 00000KT 0500 R31/0400D FG VV/// 13/12 Q1022 BECMG CAVOK

EXPIRED METARs :
  • 170500Z AUTO 00000KT 0700 R31/1000U FG VV/// 13/13 Q1022 NOSIG
  • 170430Z AUTO 00000KT 0550 R31/0750N FG VV/// 14/13 Q1022 TEMPO 0600 BCFG
  • 170400Z AUTO 00000KT 0650 R31/0700D FG VV/// 14/13 Q1022 NOSIG
  • 170330Z AUTO 00000KT 0800 R31/1300U FG VV/// 15/14 Q1022 BECMG SCT023
  • 170300Z AUTO 00000KT 4600 R31/1400U BR FEW003 SCT240 15/14 Q1022 TEMPO 0600 BCFG

TAF TAF LFCR
Valid from the 17 at 06:00 until the 18 at 06:00 UTC


170500Z 1706/1806 VRB02KT 3000 BR FEW001
TEMPO 1706/1707 0600 BCFG VV///
BECMG 1707/1709 31005KT CAVOK
No reported NOTAMs for that airfield.



MET'MAP, your aeronautical weather chart ! - Copyright ORBIFLY December 2007 - Disclaimer

ORBIFLY MET'MAP TEAM :

Programming & Development : Alexandra Zaïnal
Concept & Development : Baudouin d'Aumeries
Co-Development & Prog : Marc-Olivier Méhu
Technical & hardware support : Manuel Goepfert

Contact : metmap@orbifly.com




SOURCES & CREDITS :

   NOAA